createdAt,value
2022-09-27T00:00:14.132Z,1.60
2022-09-27T00:02:35.950Z,1.63
2022-09-27T00:04:58.639Z,1.90
2022-09-27T00:07:20.439Z,1.63
2022-09-27T00:09:42.190Z,1.83
2022-09-27T00:12:04.728Z,1.53
2022-09-27T00:14:26.520Z,1.50
2022-09-27T00:16:48.880Z,1.67
2022-09-27T00:19:15.559Z,1.50
2022-09-27T00:21:37.491Z,1.90
2022-09-27T00:24:00.169Z,2.00
2022-09-27T00:26:22.190Z,1.60
2022-09-27T00:28:44.104Z,1.50
2022-09-27T00:31:20.896Z,1.70
2022-09-27T00:33:42.975Z,1.43
2022-09-27T00:36:07.100Z,1.50
2022-09-27T00:38:28.896Z,1.58
2022-09-27T00:40:50.789Z,1.63
2022-09-27T00:43:21.205Z,1.77
2022-09-27T00:45:51.472Z,1.80
2022-09-27T00:48:17.572Z,1.90
2022-09-27T00:50:46.892Z,1.37
2022-09-27T00:53:31.467Z,1.50
2022-09-27T00:56:00.785Z,1.35
2022-09-27T00:58:46.765Z,1.47
2022-09-27T01:01:10.610Z,1.80
2022-09-27T01:03:53.661Z,1.58
2022-09-27T01:06:20.619Z,1.70
2022-09-27T01:08:43.010Z,1.87
2022-09-27T01:11:44.100Z,2.00
2022-09-27T01:14:38.432Z,1.60
2022-09-27T01:17:34.946Z,1.60
2022-09-27T01:20:49.635Z,1.50
2022-09-27T01:23:39.426Z,1.50
2022-09-27T01:26:59.563Z,1.80
2022-09-27T01:29:40.625Z,1.67
2022-09-27T01:32:16.478Z,1.63
2022-09-27T01:35:06.331Z,1.90
2022-09-27T01:37:59.592Z,1.40
2022-09-27T01:40:50.229Z,1.90
2022-09-27T01:43:41.222Z,1.50
2022-09-27T01:46:36.613Z,1.40
2022-09-27T01:49:18.282Z,1.60
2022-09-27T01:51:48.737Z,1.53
2022-09-27T01:54:17.675Z,1.77
2022-09-27T01:57:03.899Z,1.90
2022-09-27T01:59:37.910Z,1.53
2022-09-27T02:02:31.541Z,1.70
2022-09-27T02:05:17.921Z,1.70
2022-09-27T02:07:52.906Z,1.80
2022-09-27T02:10:34.012Z,1.50
2022-09-27T02:13:18.630Z,1.30
2022-09-27T02:16:36.066Z,1.20
2022-09-27T02:19:18.223Z,1.17
2022-09-27T02:22:19.344Z,1.00
2022-09-27T02:24:50.761Z,1.63
2022-09-27T02:27:23.205Z,1.20
2022-09-27T02:30:04.134Z,1.20
2022-09-27T02:32:27.469Z,1.00
2022-09-27T02:34:52.484Z,1.40
2022-09-27T02:37:14.615Z,1.17
2022-09-27T02:39:37.331Z,1.10
2022-09-27T02:42:04.866Z,1.40
2022-09-27T02:44:29.156Z,1.37
2022-09-27T02:47:32.910Z,0.93
2022-09-27T02:50:20.544Z,1.10
2022-09-27T02:53:12.707Z,0.90
2022-09-27T02:56:10.738Z,0.90
2022-09-27T02:59:43.054Z,1.10
2022-09-27T03:02:28.073Z,1.20
2022-09-27T03:05:22.414Z,1.27
2022-09-27T03:07:44.845Z,1.42
2022-09-27T03:10:07.945Z,1.20
2022-09-27T03:12:29.985Z,1.20
2022-09-27T03:15:00.422Z,1.30
2022-09-27T03:17:45.275Z,1.00
2022-09-27T03:20:19.562Z,0.85
2022-09-27T03:22:47.419Z,1.10
2022-09-27T03:25:09.928Z,1.10
2022-09-27T03:27:32.448Z,1.07
2022-09-27T03:29:54.205Z,1.23
2022-09-27T03:32:16.136Z,1.27
2022-09-27T03:34:56.206Z,1.20
2022-09-27T03:37:18.402Z,1.10
2022-09-27T03:39:40.647Z,1.10
2022-09-27T03:42:02.578Z,1.03
2022-09-27T03:44:24.335Z,1.27
2022-09-27T03:46:46.467Z,1.37
2022-09-27T03:49:08.980Z,1.10
2022-09-27T03:51:31.316Z,1.27
2022-09-27T03:53:53.528Z,1.20
2022-09-27T03:56:15.488Z,1.47
2022-09-27T03:58:37.348Z,1.10
2022-09-27T04:00:59.572Z,1.20
2022-09-27T04:03:21.874Z,1.20
2022-09-27T04:06:04.089Z,1.37
2022-09-27T04:08:32.731Z,1.27
2022-09-27T04:10:54.551Z,1.40
2022-09-27T04:13:16.467Z,1.00
2022-09-27T04:15:51.295Z,1.40
2022-09-27T04:18:29.799Z,1.20
2022-09-27T04:21:20.672Z,1.20
2022-09-27T04:23:46.953Z,1.30
2022-09-27T04:26:11.792Z,1.07
2022-09-27T04:28:54.651Z,1.57
2022-09-27T04:31:17.071Z,1.13
2022-09-27T04:33:48.942Z,1.03
2022-09-27T04:36:29.526Z,1.07
2022-09-27T04:39:17.807Z,1.20
2022-09-27T04:41:40.803Z,0.97
2022-09-27T04:44:03.233Z,0.90
2022-09-27T04:46:25.147Z,0.90
2022-09-27T04:48:48.668Z,0.87
2022-09-27T04:51:11.179Z,0.93
2022-09-27T04:53:33.258Z,0.97
2022-09-27T04:55:55.635Z,0.73
2022-09-27T04:58:17.771Z,0.70
2022-09-27T05:00:41.377Z,0.93
2022-09-27T05:03:23.550Z,0.63
2022-09-27T05:05:51.064Z,0.70
2022-09-27T05:08:13.469Z,0.90
2022-09-27T05:10:55.943Z,0.80
2022-09-27T05:13:18.524Z,0.70
2022-09-27T05:15:41.204Z,0.70
2022-09-27T05:18:23.219Z,0.90
2022-09-27T05:21:20.449Z,0.90
2022-09-27T05:23:44.794Z,0.83
2022-09-27T05:26:09.440Z,1.00
2022-09-27T05:28:31.391Z,1.30
2022-09-27T05:30:53.206Z,1.10
2022-09-27T05:33:16.607Z,0.90
2022-09-27T05:35:44.623Z,0.80
2022-09-27T05:38:07.683Z,0.80
2022-09-27T05:40:46.877Z,0.73
2022-09-27T05:43:08.721Z,0.80
2022-09-27T05:45:30.770Z,0.80
2022-09-27T05:47:59.115Z,0.80
2022-09-27T05:50:23.279Z,0.60
2022-09-27T05:52:45.065Z,0.93
2022-09-27T05:55:08.090Z,0.73
2022-09-27T05:57:30.004Z,0.80
2022-09-27T05:59:57.781Z,1.00
2022-09-27T06:02:39.570Z,1.20
2022-09-27T06:05:04.670Z,0.80
2022-09-27T06:07:39.237Z,0.80
2022-09-27T06:10:05.696Z,0.60
2022-09-27T06:12:28.423Z,0.73
2022-09-27T06:14:50.362Z,0.67
2022-09-27T06:17:25.065Z,0.73
2022-09-27T06:19:47.706Z,0.80
2022-09-27T06:22:09.930Z,0.80
2022-09-27T06:24:38.774Z,0.73
2022-09-27T06:27:08.131Z,0.77
2022-09-27T06:29:39.870Z,0.93
2022-09-27T06:32:06.719Z,0.80
2022-09-27T06:34:36.258Z,0.80
2022-09-27T06:36:59.040Z,0.83
2022-09-27T06:39:22.621Z,0.77
2022-09-27T06:41:59.811Z,0.70
2022-09-27T06:44:40.284Z,0.93
2022-09-27T06:47:20.472Z,0.70
2022-09-27T06:49:49.484Z,1.00
2022-09-27T06:52:13.090Z,0.75
2022-09-27T06:54:34.845Z,0.90
2022-09-27T06:57:00.276Z,0.90
2022-09-27T06:59:43.623Z,1.00
2022-09-27T07:02:25.236Z,0.97
2022-09-27T07:05:10.224Z,0.83
2022-09-27T07:07:57.621Z,0.67
2022-09-27T07:10:19.701Z,0.70
2022-09-27T07:12:41.606Z,1.00
2022-09-27T07:15:06.517Z,1.10
2022-09-27T07:17:28.398Z,3.10
2022-09-27T07:19:50.244Z,2.87
2022-09-27T07:22:12.820Z,1.47
2022-09-27T07:24:36.856Z,1.80
2022-09-27T07:27:00.059Z,1.30
2022-09-27T07:29:22.689Z,1.17
2022-09-27T07:31:47.436Z,1.70
2022-09-27T07:34:09.483Z,1.20
2022-09-27T07:36:31.291Z,1.40
2022-09-27T07:38:53.877Z,1.23
2022-09-27T07:41:16.302Z,1.73
2022-09-27T07:43:39.190Z,1.40
2022-09-27T07:46:01.142Z,1.43
2022-09-27T07:48:37.421Z,1.63
2022-09-27T07:51:12.661Z,1.70
2022-09-27T07:53:40.802Z,1.60
2022-09-27T07:56:25.885Z,1.80
2022-09-27T07:58:47.752Z,2.20
2022-09-27T08:01:09.816Z,2.17
2022-09-27T08:03:31.758Z,2.40
2022-09-27T08:05:54.389Z,2.67
2022-09-27T08:08:17.376Z,2.57
2022-09-27T08:13:06.968Z,2.53
2022-09-27T08:15:29.817Z,3.60
2022-09-27T08:17:51.954Z,3.40
2022-09-27T08:20:37.228Z,3.30
2022-09-27T08:23:17.840Z,3.73
2022-09-27T08:25:44.927Z,4.20
2022-09-27T08:28:26.241Z,4.23
2022-09-27T08:30:53.800Z,4.47
2022-09-27T08:33:15.977Z,4.57
2022-09-27T08:35:37.776Z,4.77
2022-09-27T08:38:02.737Z,4.23
2022-09-27T08:40:49.231Z,4.40
2022-09-27T08:43:39.003Z,4.30
2022-09-27T08:46:29.188Z,4.47
2022-09-27T08:49:02.982Z,4.53
2022-09-27T08:51:31.505Z,4.35
2022-09-27T08:54:06.759Z,4.63
2022-09-27T08:56:28.928Z,4.80
2022-09-27T08:59:01.614Z,4.73
2022-09-27T09:01:29.265Z,4.90
2022-09-27T09:04:29.671Z,5.27
2022-09-27T09:07:32.381Z,4.67
2022-09-27T09:10:42.902Z,4.80
2022-09-27T09:13:42.648Z,4.50
2022-09-27T09:16:43.433Z,4.60
2022-09-27T09:19:37.166Z,5.80
2022-09-27T09:22:46.595Z,6.17
2022-09-27T09:25:23.435Z,6.80
2022-09-27T09:28:15.581Z,6.07
2022-09-27T09:31:21.643Z,7.10
2022-09-27T09:37:17.938Z,6.87
2022-09-27T09:39:50.333Z,7.43
2022-09-27T09:42:38.597Z,7.30
2022-09-27T09:45:16.814Z,7.90
2022-09-27T09:47:48.678Z,8.07
2022-09-27T09:50:46.355Z,7.53
2022-09-27T09:53:24.017Z,8.17
2022-09-27T09:55:57.837Z,6.70
2022-09-27T09:58:42.970Z,7.23
2022-09-27T10:01:23.697Z,7.13
2022-09-27T10:03:46.881Z,7.33
2022-09-27T10:06:12.380Z,7.17
2022-09-27T10:08:34.286Z,7.03
2022-09-27T10:11:45.883Z,7.23
2022-09-27T10:14:22.939Z,7.17
2022-09-27T10:17:00.032Z,7.27
2022-09-27T10:19:37.360Z,7.40
2022-09-27T10:22:14.364Z,7.20
2022-09-27T10:25:02.574Z,6.77
2022-09-27T10:27:56.328Z,6.13
2022-09-27T10:30:35.405Z,5.90
2022-09-27T10:33:16.788Z,4.60
2022-09-27T10:35:47.015Z,3.90
2022-09-27T10:38:31.594Z,3.47
2022-09-27T10:41:26.849Z,3.13
2022-09-27T10:43:55.464Z,3.00
2022-09-27T10:46:34.739Z,2.80
2022-09-27T10:49:36.045Z,3.17
2022-09-27T10:52:15.179Z,3.07
2022-09-27T10:54:42.275Z,3.23
2022-09-27T10:57:41.759Z,3.10
2022-09-27T11:00:22.925Z,3.07
2022-09-27T11:02:56.038Z,2.97
2022-09-27T11:05:29.447Z,3.13
2022-09-27T11:08:03.155Z,3.60
2022-09-27T11:10:41.489Z,2.87
2022-09-27T11:13:17.978Z,2.37
2022-09-27T11:16:37.236Z,2.67
2022-09-27T11:19:19.629Z,2.03
2022-09-27T11:22:24.620Z,1.37
2022-09-27T11:25:21.381Z,1.60
2022-09-27T11:28:20.260Z,1.50
2022-09-27T11:31:20.429Z,1.70
2022-09-27T11:34:29.913Z,1.13
2022-09-27T11:37:21.410Z,1.10
2022-09-27T11:40:05.792Z,1.17
2022-09-27T11:42:47.181Z,0.93
2022-09-27T11:49:16.897Z,1.10
2022-09-27T11:52:07.555Z,0.93
2022-09-27T11:55:19.188Z,0.83
2022-09-27T11:58:00.867Z,1.30
2022-09-27T12:01:03.415Z,1.00
2022-09-27T12:04:25.456Z,1.30
2022-09-27T12:06:56.373Z,1.00
2022-09-27T12:09:26.109Z,1.10
2022-09-27T12:12:11.119Z,1.10
2022-09-27T12:14:51.807Z,1.48
2022-09-27T12:17:36.739Z,1.23
2022-09-27T12:20:07.830Z,1.23
2022-09-27T12:23:23.906Z,1.20
2022-09-27T12:26:23.490Z,0.90
2022-09-27T12:28:56.646Z,1.23
2022-09-27T12:31:29.449Z,1.00
2022-09-27T12:34:02.698Z,1.20
2022-09-27T12:36:38.333Z,0.90
2022-09-27T12:39:34.955Z,0.80
2022-09-27T12:42:22.819Z,0.97
2022-09-27T12:44:47.570Z,0.90
2022-09-27T12:47:26.929Z,0.70
2022-09-27T12:50:14.755Z,0.60
2022-09-27T12:52:47.428Z,0.50
2022-09-27T12:56:07.564Z,0.60
2022-09-27T12:59:00.127Z,0.60
2022-09-27T13:01:34.191Z,0.60
2022-09-27T13:04:25.448Z,0.75
2022-09-27T13:07:05.046Z,0.73
2022-09-27T13:10:06.766Z,0.50
2022-09-27T13:12:34.262Z,1.10
2022-09-27T13:15:29.602Z,0.40
2022-09-27T13:20:31.401Z,0.60
2022-09-27T13:22:55.373Z,0.40
2022-09-27T13:26:00.748Z,0.50
2022-09-27T13:29:03.934Z,0.40
2022-09-27T13:31:53.596Z,0.50
2022-09-27T13:34:45.927Z,0.60
2022-09-27T13:38:01.745Z,0.50
2022-09-27T13:40:39.104Z,0.70
2022-09-27T13:43:57.527Z,0.60
2022-09-27T13:46:37.497Z,0.77
2022-09-27T13:49:18.335Z,0.90
2022-09-27T13:52:27.013Z,0.70
2022-09-27T13:55:26.955Z,0.93
2022-09-27T13:57:59.486Z,0.93
2022-09-27T14:00:34.646Z,0.70
2022-09-27T14:03:11.766Z,0.70
2022-09-27T14:06:08.460Z,0.80
2022-09-27T14:08:58.872Z,1.03
2022-09-27T14:11:30.571Z,0.90
2022-09-27T14:13:54.376Z,1.13
2022-09-27T14:16:20.162Z,1.20
2022-09-27T14:18:59.561Z,1.08
2022-09-27T14:21:38.778Z,1.13
2022-09-27T14:24:46.771Z,1.20
2022-09-27T14:27:36.695Z,1.20
2022-09-27T14:33:04.098Z,1.70
2022-09-27T14:36:08.353Z,1.70
2022-09-27T14:38:37.961Z,1.53
2022-09-27T14:41:08.928Z,1.50
2022-09-27T14:43:34.446Z,1.87
2022-09-27T14:46:28.794Z,1.80
2022-09-27T14:48:50.950Z,1.70
2022-09-27T14:51:14.986Z,1.93
2022-09-27T14:53:44.910Z,2.28
2022-09-27T14:56:11.965Z,2.10
2022-09-27T14:58:47.156Z,1.97
2022-09-27T15:01:18.147Z,1.90
2022-09-27T15:03:44.230Z,2.10
2022-09-27T15:06:07.174Z,2.13
2022-09-27T15:08:30.765Z,2.27
2022-09-27T15:10:54.586Z,1.88
2022-09-27T15:13:19.627Z,1.50
2022-09-27T15:15:42.300Z,1.60
2022-09-27T15:19:00.460Z,1.37
2022-09-27T15:21:34.227Z,1.10
2022-09-27T15:23:59.339Z,1.10
2022-09-27T15:26:50.812Z,1.10
2022-09-27T15:29:25.942Z,1.70
2022-09-27T15:32:02.341Z,1.40
2022-09-27T15:34:25.503Z,1.30
2022-09-27T15:36:54.983Z,1.50
2022-09-27T15:39:40.627Z,1.20
2022-09-27T15:42:20.424Z,1.20
2022-09-27T15:44:55.061Z,1.20
2022-09-27T15:47:32.040Z,1.40
2022-09-27T15:49:54.115Z,1.47
2022-09-27T15:52:52.522Z,1.30
2022-09-27T15:55:15.255Z,1.70
2022-09-27T15:57:39.561Z,2.00
2022-09-27T16:00:02.661Z,1.95
2022-09-27T16:02:33.907Z,2.30
2022-09-27T16:04:55.790Z,2.70
2022-09-27T16:07:17.739Z,2.63
2022-09-27T16:09:40.737Z,2.50
2022-09-27T16:12:02.530Z,2.03
2022-09-27T16:14:24.531Z,2.30
2022-09-27T16:16:52.164Z,2.10
2022-09-27T16:19:14.282Z,2.50
2022-09-27T16:21:36.173Z,2.50
2022-09-27T16:23:59.433Z,2.80
2022-09-27T16:26:23.671Z,3.20
2022-09-27T16:28:45.605Z,2.47
2022-09-27T16:31:12.222Z,2.00
2022-09-27T16:33:36.762Z,1.80
2022-09-27T16:38:27.061Z,1.37
2022-09-27T16:40:48.910Z,1.53
2022-09-27T16:43:11.960Z,1.50
2022-09-27T16:45:36.429Z,1.57
2022-09-27T16:47:59.774Z,1.47
2022-09-27T16:50:39.886Z,1.80
2022-09-27T16:53:02.011Z,1.43
2022-09-27T16:55:24.110Z,1.30
2022-09-27T16:57:46.119Z,1.30
2022-09-27T17:00:10.475Z,1.77
2022-09-27T17:02:32.707Z,1.42
2022-09-27T17:04:56.407Z,1.70
2022-09-27T17:07:18.537Z,1.53
2022-09-27T17:09:40.385Z,1.20
2022-09-27T17:12:02.330Z,1.30
2022-09-27T17:14:24.599Z,1.53
2022-09-27T17:16:48.619Z,1.50
2022-09-27T17:19:10.700Z,1.70
2022-09-27T17:21:37.836Z,1.80
2022-09-27T17:24:01.168Z,1.77
2022-09-27T17:26:24.261Z,1.70
2022-09-27T17:28:47.650Z,1.90
2022-09-27T17:31:15.546Z,1.90
2022-09-27T17:33:55.493Z,2.00
2022-09-27T17:36:29.697Z,2.50
2022-09-27T17:38:52.814Z,2.57
2022-09-27T17:41:23.480Z,2.50
2022-09-27T17:43:52.055Z,2.40
2022-09-27T17:46:14.339Z,2.97
2022-09-27T17:49:00.240Z,2.80
2022-09-27T17:51:23.287Z,2.80
2022-09-27T17:53:46.062Z,3.10
2022-09-27T17:56:07.984Z,2.30
2022-09-27T17:58:31.111Z,2.77
2022-09-27T18:00:52.887Z,2.97
2022-09-27T18:03:14.686Z,2.70
2022-09-27T18:05:37.516Z,3.20
2022-09-27T18:08:00.418Z,3.80
2022-09-27T18:10:22.317Z,2.87
2022-09-27T18:12:44.109Z,3.40
2022-09-27T18:15:06.885Z,3.57
2022-09-27T18:17:28.856Z,3.63
2022-09-27T18:19:50.879Z,2.97
2022-09-27T18:22:12.662Z,3.20
2022-09-27T18:24:34.550Z,3.27
2022-09-27T18:26:57.141Z,3.10
2022-09-27T18:29:19.158Z,3.70
2022-09-27T18:31:47.997Z,3.40
2022-09-27T18:34:10.718Z,3.63
2022-09-27T18:36:33.265Z,3.90
2022-09-27T18:39:05.027Z,3.67
2022-09-27T18:41:30.967Z,4.03
2022-09-27T18:43:59.552Z,4.33
2022-09-27T18:46:37.494Z,4.20
2022-09-27T18:48:59.712Z,4.53
2022-09-27T18:51:27.093Z,5.23
2022-09-27T18:53:48.917Z,4.30
2022-09-27T18:56:16.386Z,4.97
2022-09-27T18:58:39.483Z,5.00
2022-09-27T19:01:03.706Z,4.23
2022-09-27T19:03:25.587Z,4.35
2022-09-27T19:05:58.565Z,4.00
2022-09-27T19:08:20.436Z,4.60
2022-09-27T19:10:42.290Z,4.07
2022-09-27T19:13:04.273Z,4.10
2022-09-27T19:15:26.663Z,3.97
2022-09-27T19:17:51.979Z,4.50
2022-09-27T19:20:13.927Z,4.53
2022-09-27T19:22:35.783Z,4.27
2022-09-27T19:24:57.643Z,4.77
2022-09-27T19:27:19.553Z,6.50
2022-09-27T19:29:41.380Z,6.13
2022-09-27T19:32:03.272Z,9.87
2022-09-27T19:34:25.071Z,5.57
2022-09-27T19:36:46.823Z,5.30
2022-09-27T19:39:08.700Z,5.03
2022-09-27T19:41:30.774Z,7.23
2022-09-27T19:43:54.526Z,9.70
2022-09-27T19:46:18.339Z,33.75
2022-09-27T19:48:40.161Z,21.08
2022-09-27T19:51:02.522Z,16.20
2022-09-27T19:53:29.853Z,6.60
2022-09-27T19:56:01.857Z,5.30
2022-09-27T19:58:23.904Z,6.20
2022-09-27T20:00:45.735Z,5.93
2022-09-27T20:03:07.842Z,5.90
2022-09-27T20:05:29.663Z,6.50
2022-09-27T20:07:53.912Z,6.23
2022-09-27T20:10:15.901Z,5.47
2022-09-27T20:12:38.330Z,5.63
2022-09-27T20:15:00.188Z,5.23
2022-09-27T20:17:21.950Z,6.20
2022-09-27T20:19:43.711Z,6.17
2022-09-27T20:22:05.484Z,7.73
2022-09-27T20:24:27.723Z,10.23
2022-09-27T20:26:50.842Z,8.60
2022-09-27T20:29:12.811Z,11.77
2022-09-27T20:31:39.700Z,13.70
2022-09-27T20:34:13.765Z,9.97
2022-09-27T20:36:39.862Z,8.70
2022-09-27T20:39:06.158Z,6.37
2022-09-27T20:41:31.367Z,5.90
2022-09-27T20:44:03.541Z,4.83
2022-09-27T20:46:25.970Z,3.87
2022-09-27T20:48:56.671Z,4.50
2022-09-27T20:51:18.767Z,3.87
2022-09-27T20:53:45.224Z,3.90
2022-09-27T20:56:19.777Z,3.83
2022-09-27T20:58:41.971Z,4.03
2022-09-27T21:01:06.451Z,4.07
2022-09-27T21:05:55.307Z,3.57
2022-09-27T21:08:17.381Z,4.10
2022-09-27T21:10:39.282Z,3.80
2022-09-27T21:13:01.122Z,3.83
2022-09-27T21:15:22.939Z,3.73
2022-09-27T21:17:45.072Z,3.70
2022-09-27T21:20:07.476Z,4.07
2022-09-27T21:22:30.446Z,4.00
2022-09-27T21:24:52.320Z,4.17
2022-09-27T21:27:14.261Z,4.23
2022-09-27T21:29:36.070Z,3.40
2022-09-27T21:31:57.899Z,3.70
2022-09-27T21:34:19.780Z,3.50
2022-09-27T21:36:41.656Z,3.67
2022-09-27T21:39:06.723Z,3.60
2022-09-27T21:41:28.673Z,3.63
2022-09-27T21:43:50.753Z,4.03
2022-09-27T21:46:27.519Z,4.23
2022-09-27T21:48:53.023Z,4.03
2022-09-27T21:51:18.571Z,4.03
2022-09-27T21:53:44.785Z,4.13
2022-09-27T21:56:08.885Z,4.40
2022-09-27T21:58:40.193Z,4.63
2022-09-27T22:01:08.322Z,4.37
2022-09-27T22:03:30.112Z,4.40
2022-09-27T22:05:52.740Z,4.30
2022-09-27T22:08:14.663Z,4.60
2022-09-27T22:10:36.504Z,4.20
2022-09-27T22:12:58.313Z,4.50
2022-09-27T22:15:20.627Z,4.43
2022-09-27T22:17:42.432Z,4.43
2022-09-27T22:20:04.784Z,4.30
2022-09-27T22:22:26.687Z,4.60
2022-09-27T22:24:48.536Z,4.30
2022-09-27T22:27:10.313Z,4.87
2022-09-27T22:29:32.082Z,5.30
2022-09-27T22:31:54.077Z,5.50
2022-09-27T22:34:28.820Z,5.13
2022-09-27T22:36:51.152Z,5.20
2022-09-27T22:39:13.291Z,5.37
2022-09-27T22:41:36.139Z,5.97
2022-09-27T22:43:58.411Z,5.53
2022-09-27T22:46:21.469Z,5.90
2022-09-27T22:48:43.340Z,7.27
2022-09-27T22:51:06.795Z,7.40
2022-09-27T22:53:31.606Z,6.83
2022-09-27T22:56:19.770Z,7.37
2022-09-27T22:58:43.957Z,7.73
2022-09-27T23:01:13.853Z,7.78
2022-09-27T23:03:35.909Z,7.93
2022-09-27T23:06:02.447Z,8.40
2022-09-27T23:08:24.226Z,8.77
2022-09-27T23:10:46.011Z,8.10
2022-09-27T23:13:08.147Z,9.20
2022-09-27T23:15:29.935Z,8.57
2022-09-27T23:17:51.912Z,8.57
2022-09-27T23:20:14.352Z,8.13
2022-09-27T23:22:36.212Z,8.63
2022-09-27T23:24:58.132Z,9.00
2022-09-27T23:27:38.485Z,9.83
2022-09-27T23:30:00.330Z,9.07
2022-09-27T23:32:22.685Z,9.37
2022-09-27T23:34:44.480Z,9.03
2022-09-27T23:37:06.326Z,10.27
2022-09-27T23:39:28.936Z,9.07
2022-09-27T23:41:50.854Z,9.77
2022-09-27T23:44:14.236Z,9.87
2022-09-27T23:46:37.350Z,10.23
2022-09-27T23:48:59.292Z,9.23
2022-09-27T23:51:21.185Z,9.80
2022-09-27T23:53:44.462Z,9.10
2022-09-27T23:56:10.235Z,8.73
2022-09-27T23:58:37.498Z,9.83
